Time;durP1;ratioP1;P1;durP2;ratioP2;P2;SDS_P1;SDS_P2;PMS_P1;PMS_P2;Temp;Humidity;BMP_temperature;BMP_pressure;BME280_temperature;BME280_humidity;BME280_pressure;Samples;Min_cycle;Max_cycle;Signal;HPM_P1;HPM_P2
2023/02/28 00:00:35;;;;;;;10.57;2.55;;;20.50;44.80;;;;;;5119638;27;20157;-64
2023/02/28 00:03:02;;;;;;;14.55;2.53;;;20.70;44.50;;;;;;5117171;27;20063;-66
2023/02/28 00:05:29;;;;;;;7.63;2.60;;;20.60;44.20;;;;;;5110062;27;20087;-65
2023/02/28 00:07:55;;;;;;;14.52;2.30;;;20.70;44.60;;;;;;5113151;27;20109;-65
2023/02/28 00:10:26;;;;;;;14.23;2.50;;;20.80;44.70;;;;;;5119080;27;20086;-64
2023/02/28 00:12:56;;;;;;;29.23;2.95;;;20.70;45.00;;;;;;5125207;27;20182;-66
2023/02/28 00:15:23;;;;;;;12.32;2.42;;;20.60;45.40;;;;;;5117033;27;20431;-66
2023/02/28 00:17:50;;;;;;;19.23;2.70;;;20.50;45.60;;;;;;5117618;27;20070;-68
2023/02/28 00:20:18;;;;;;;19.77;2.13;;;20.60;45.50;;;;;;5118149;27;20111;-67
2023/02/28 00:22:52;;;;;;;14.13;2.83;;;20.50;45.00;;;;;;5117683;27;20062;-66
2023/02/28 00:25:22;;;;;;;13.35;2.40;;;20.50;44.80;;;;;;5115178;27;20062;-66
2023/02/28 00:27:49;;;;;;;15.18;2.42;;;20.40;44.90;;;;;;5119997;27;20185;-67
2023/02/28 00:30:18;;;;;;;14.18;2.65;;;20.50;45.10;;;;;;5114720;27;20074;-67
2023/02/28 00:32:45;;;;;;;35.95;2.67;;;20.40;46.50;;;;;;5115719;27;20067;-67
2023/02/28 00:35:12;;;;;;;7.13;1.05;;;20.30;47.80;;;;;;5117788;27;20194;-66
2023/02/28 00:37:39;;;;;;;20.30;1.55;;;20.30;47.80;;;;;;5118281;27;20082;-65
2023/02/28 00:40:06;;;;;;;4.50;0.98;;;20.20;48.00;;;;;;5116753;27;20094;-65
2023/02/28 00:42:34;;;;;;;7.78;1.20;;;20.30;47.80;;;;;;5121620;27;20070;-66
2023/02/28 00:45:01;;;;;;;7.72;1.50;;;20.10;48.20;;;;;;5118411;27;20216;-69
2023/02/28 00:47:27;;;;;;;13.38;1.10;;;20.20;48.20;;;;;;5124161;27;20082;-65
2023/02/28 00:49:53;;;;;;;9.07;1.50;;;20.00;48.00;;;;;;5123210;27;20164;-65
2023/02/28 00:52:20;;;;;;;5.22;1.00;;;19.80;48.90;;;;;;5119780;27;20071;-64
2023/02/28 00:54:46;;;;;;;8.55;2.22;;;19.70;49.00;;;;;;5119010;27;20079;-64
2023/02/28 00:57:12;;;;;;;9.80;2.10;;;19.60;48.90;;;;;;5115054;27;20106;-65
2023/02/28 00:59:39;;;;;;;8.30;1.15;;;19.70;49.40;;;;;;5123178;27;20650;-63
2023/02/28 01:02:05;;;;;;;5.47;1.15;;;19.70;50.10;;;;;;5116356;27;20132;-63
2023/02/28 01:04:32;;;;;;;5.32;1.27;;;19.60;50.40;;;;;;5118576;27;20073;-64
2023/02/28 01:06:58;;;;;;;21.42;1.85;;;19.60;51.40;;;;;;5115649;27;20113;-65
2023/02/28 01:09:25;;;;;;;4.55;1.20;;;19.40;51.50;;;;;;5117412;27;20429;-67
2023/02/28 01:11:51;;;;;;;18.48;1.73;;;19.20;51.40;;;;;;5116479;27;20485;-67
2023/02/28 01:14:18;;;;;;;10.82;1.92;;;19.20;52.20;;;;;;5121806;27;20074;-66
2023/02/28 01:16:44;;;;;;;18.80;1.60;;;19.20;52.90;;;;;;5119999;27;20071;-64
2023/02/28 01:19:11;;;;;;;26.48;2.30;;;19.20;52.30;;;;;;5111554;27;20122;-63
2023/02/28 01:21:38;;;;;;;104.72;7.70;;;19.00;52.60;;;;;;5114331;27;20116;-66
2023/02/28 01:24:05;;;;;;;8.63;1.50;;;18.90;52.60;;;;;;5114734;27;20132;-64
2023/02/28 01:26:32;;;;;;;7.75;1.75;;;18.80;52.60;;;;;;5117071;27;20094;-64
2023/02/28 01:28:58;;;;;;;31.80;2.50;;;18.80;53.00;;;;;;5112280;27;20090;-64
2023/02/28 01:31:25;;;;;;;66.82;4.55;;;18.70;53.30;;;;;;5116711;27;20067;-66
2023/02/28 01:33:52;;;;;;;17.60;2.47;;;18.50;53.40;;;;;;5112197;27;20530;-66
2023/02/28 01:36:21;;;;;;;6.82;1.60;;;18.40;53.80;;;;;;5108587;27;20082;-65
2023/02/28 01:38:47;;;;;;;5.47;1.38;;;18.40;54.20;;;;;;5118566;27;20432;-65
2023/02/28 01:41:24;;;;;;;16.30;2.53;;;18.30;54.30;;;;;;5113993;27;20086;-65
2023/02/28 01:44:03;;;;;;;8.85;2.38;;;18.20;54.70;;;;;;5117370;27;20090;-65
2023/02/28 01:46:31;;;;;;;58.38;4.50;;;18.10;54.80;;;;;;5118042;27;20074;-64
2023/02/28 01:49:07;;;;;;;12.20;2.53;;;18.10;55.20;;;;;;5117986;27;20135;-64
2023/02/28 01:51:34;;;;;;;12.23;2.90;;;18.10;55.40;;;;;;5118116;27;20149;-64
2023/02/28 01:54:05;;;;;;;15.48;2.70;;;18.00;55.50;;;;;;5124955;27;20187;-66
2023/02/28 01:56:36;;;;;;;12.80;1.92;;;17.90;56.00;;;;;;5120238;27;20080;-64
2023/02/28 01:59:03;;;;;;;7.28;2.38;;;17.70;56.30;;;;;;5118818;27;20503;-65
2023/02/28 02:01:30;;;;;;;8.65;2.40;;;17.60;56.70;;;;;;5116001;27;20063;-63
2023/02/28 02:04:00;;;;;;;12.07;1.40;;;17.60;57.00;;;;;;5117631;27;20066;-62
2023/02/28 02:06:43;;;;;;;10.45;2.03;;;17.60;57.10;;;;;;5117055;27;20119;-62
2023/02/28 02:09:10;;;;;;;8.48;2.45;;;17.40;57.30;;;;;;5121808;27;20115;-63
2023/02/28 02:11:39;;;;;;;12.13;4.35;;;17.40;57.50;;;;;;5115739;27;20069;-64
2023/02/28 02:14:14;;;;;;;8.23;1.92;;;17.30;57.50;;;;;;5120402;27;20067;-66
2023/02/28 02:17:05;;;;;;;15.45;2.90;;;17.30;57.70;;;;;;5118227;27;20111;-66
2023/02/28 02:20:07;;;;;;;8.70;2.50;;;17.30;58.10;;;;;;5117336;27;20549;-65
2023/02/28 02:22:49;;;;;;;18.88;5.28;;;17.20;58.30;;;;;;5113871;27;20078;-65
2023/02/28 02:25:35;;;;;;;6.70;1.83;;;17.10;58.70;;;;;;5124781;27;20140;-65
2023/02/28 02:28:21;;;;;;;5.73;1.00;;;17.00;58.90;;;;;;5118233;27;20492;-66
2023/02/28 02:31:05;;;;;;;6.22;1.52;;;16.90;59.00;;;;;;5119849;27;20334;-66
2023/02/28 02:34:02;;;;;;;6.25;2.00;;;16.90;59.40;;;;;;5118159;27;20082;-66
2023/02/28 02:36:49;;;;;;;8.80;1.80;;;16.90;59.50;;;;;;5113500;27;20075;-67
2023/02/28 02:39:18;;;;;;;10.18;1.00;;;16.70;59.60;;;;;;5115104;27;20082;-65
2023/02/28 02:41:53;;;;;;;7.90;1.50;;;16.70;59.80;;;;;;5116688;27;20071;-66
2023/02/28 02:44:44;;;;;;;7.30;1.73;;;16.60;60.00;;;;;;5118842;27;20092;-67
2023/02/28 02:47:15;;;;;;;15.10;2.10;;;16.60;60.40;;;;;;5115056;27;20184;-67
2023/02/28 02:49:49;;;;;;;9.13;1.70;;;16.60;60.70;;;;;;5114823;27;20073;-67
2023/02/28 02:52:21;;;;;;;9.20;1.77;;;16.50;60.70;;;;;;5118396;27;20495;-68
2023/02/28 02:54:52;;;;;;;11.63;1.77;;;16.50;60.90;;;;;;5117454;27;20104;-65
2023/02/28 02:57:32;;;;;;;6.88;1.33;;;16.40;61.10;;;;;;5114438;27;20094;-66
2023/02/28 03:00:01;;;;;;;8.90;2.03;;;16.40;61.30;;;;;;5117340;27;20090;-65
2023/02/28 03:02:34;;;;;;;8.80;1.55;;;16.40;61.60;;;;;;5111776;27;20117;-65
2023/02/28 03:05:04;;;;;;;12.90;1.80;;;16.30;61.80;;;;;;5112644;27;20100;-65
2023/02/28 03:07:31;;;;;;;6.38;1.58;;;16.30;61.80;;;;;;5110082;27;20071;-67
2023/02/28 03:09:58;;;;;;;13.50;1.77;;;16.20;61.80;;;;;;5110594;27;20092;-65
2023/02/28 03:12:41;;;;;;;5.13;1.65;;;16.10;62.40;;;;;;5111688;27;20439;-64
2023/02/28 03:15:19;;;;;;;8.05;1.60;;;16.20;62.50;;;;;;5115257;27;20563;-64
2023/02/28 03:18:14;;;;;;;5.40;1.20;;;16.20;62.20;;;;;;5113092;27;20563;-63
2023/02/28 03:21:09;;;;;;;9.00;1.70;;;16.20;62.20;;;;;;5116145;27;20088;-65
2023/02/28 03:23:43;;;;;;;11.50;2.45;;;16.10;62.80;;;;;;5114283;27;20199;-64
2023/02/28 03:26:22;;;;;;;16.42;5.28;;;15.90;63.80;;;;;;5111953;27;20096;-63
2023/02/28 03:29:12;;;;;;;11.38;2.47;;;15.90;63.90;;;;;;5114186;28;20078;-66
2023/02/28 03:32:21;;;;;;;12.25;2.40;;;15.90;63.80;;;;;;5117575;27;20444;-65
2023/02/28 03:35:04;;;;;;;9.60;2.20;;;15.80;64.20;;;;;;5101769;28;20103;-64
2023/02/28 03:37:36;;;;;;;6.13;1.67;;;15.70;64.40;;;;;;5116407;28;20082;-66
2023/02/28 03:40:12;;;;;;;7.22;2.00;;;15.70;64.50;;;;;;5111359;28;20083;-65
2023/02/28 03:42:42;;;;;;;11.60;2.85;;;15.50;65.00;;;;;;5118215;28;20086;-66
2023/02/28 03:45:24;;;;;;;9.88;1.77;;;15.50;65.40;;;;;;5113444;27;20090;-66
2023/02/28 03:48:01;;;;;;;7.72;1.92;;;15.50;65.60;;;;;;5110248;28;20063;-66
2023/02/28 03:50:36;;;;;;;6.93;1.95;;;15.50;65.80;;;;;;5111946;28;20066;-65
2023/02/28 03:53:20;;;;;;;10.63;2.00;;;15.40;65.80;;;;;;5115585;28;20071;-64
2023/02/28 03:56:20;;;;;;;15.38;2.20;;;15.40;66.20;;;;;;5107538;28;20145;-65
2023/02/28 03:59:07;;;;;;;14.00;2.35;;;15.30;66.30;;;;;;5110444;28;20924;-63
2023/02/28 04:01:41;;;;;;;9.27;2.35;;;15.30;66.20;;;;;;5113917;28;20068;-63
2023/02/28 04:04:08;;;;;;;8.38;2.30;;;15.20;66.50;;;;;;5112309;28;20174;-62
2023/02/28 04:06:35;;;;;;;11.10;2.40;;;15.30;66.40;;;;;;5108189;28;20114;-64
2023/02/28 04:09:03;;;;;;;9.07;2.20;;;15.30;66.10;;;;;;5105874;28;20556;-63
2023/02/28 04:11:55;;;;;;;16.70;2.50;;;15.30;66.10;;;;;;5106371;28;20528;-64
2023/02/28 04:14:22;;;;;;;10.85;2.20;;;15.20;67.30;;;;;;5107615;28;20072;-64
2023/02/28 04:16:50;;;;;;;14.73;3.28;;;15.20;66.50;;;;;;5107516;28;20072;-64
2023/02/28 04:19:17;;;;;;;12.50;2.50;;;15.10;67.10;;;;;;5109742;28;20133;-63
2023/02/28 04:21:52;;;;;;;12.35;3.22;;;14.90;67.40;;;;;;5105421;28;20179;-65
2023/02/28 04:24:23;;;;;;;12.00;2.72;;;14.90;68.60;;;;;;5112871;28;20787;-64
2023/02/28 04:26:52;;;;;;;9.98;2.72;;;14.80;67.90;;;;;;5108933;28;20083;-63
2023/02/28 04:29:27;;;;;;;8.30;2.17;;;14.80;68.30;;;;;;5108907;28;20082;-63
2023/02/28 04:31:57;;;;;;;9.50;2.42;;;14.80;68.50;;;;;;5112501;28;20103;-65
2023/02/28 04:34:24;;;;;;;14.20;2.80;;;14.70;69.30;;;;;;5112851;28;20586;-64
2023/02/28 04:36:53;;;;;;;21.77;3.47;;;14.60;69.30;;;;;;5114333;28;20072;-63
2023/02/28 04:39:21;;;;;;;6.85;2.30;;;14.60;70.00;;;;;;5112556;28;20494;-64
2023/02/28 04:41:48;;;;;;;3.72;1.33;;;14.60;68.90;;;;;;5116470;27;20119;-63
2023/02/28 04:44:15;;;;;;;7.68;1.20;;;14.70;68.30;;;;;;5118424;27;20551;-64
2023/02/28 04:46:42;;;;;;;15.50;1.48;;;14.80;67.30;;;;;;5117697;27;20106;-65
2023/02/28 04:49:11;;;;;;;10.02;1.40;;;14.90;66.80;;;;;;5114635;27;20448;-63
2023/02/28 04:51:38;;;;;;;7.55;2.13;;;15.00;66.50;;;;;;5117272;27;20070;-64
2023/02/28 04:54:04;;;;;;;9.40;1.30;;;15.10;66.20;;;;;;5112912;27;20083;-64
2023/02/28 04:56:31;;;;;;;4.82;1.20;;;15.10;66.40;;;;;;5118977;27;20060;-63
2023/02/28 04:58:57;;;;;;;6.72;1.90;;;15.10;66.00;;;;;;5118085;27;20076;-64
2023/02/28 05:01:32;;;;;;;10.95;1.58;;;15.10;66.10;;;;;;5118521;27;20171;-64
2023/02/28 05:04:01;;;;;;;12.52;2.20;;;15.20;66.10;;;;;;5123461;27;20071;-64
2023/02/28 05:06:29;;;;;;;6.90;2.88;;;15.20;66.20;;;;;;5116945;27;20106;-63
2023/02/28 05:08:56;;;;;;;10.60;3.38;;;15.20;66.30;;;;;;5116637;27;20547;-65
2023/02/28 05:11:35;;;;;;;7.90;1.52;;;15.20;66.10;;;;;;5117772;27;20106;-64
2023/02/28 05:14:10;;;;;;;4.30;1.75;;;15.30;66.00;;;;;;5113288;27;20075;-64
2023/02/28 05:16:36;;;;;;;6.22;1.20;;;15.30;66.30;;;;;;5115683;27;20432;-63
2023/02/28 05:19:03;;;;;;;5.45;1.10;;;15.30;66.30;;;;;;5112621;27;20147;-64
2023/02/28 05:21:35;;;;;;;7.88;1.15;;;15.30;66.10;;;;;;5122806;27;20087;-64
2023/02/28 05:24:07;;;;;;;3.25;0.90;;;15.30;65.80;;;;;;5115354;27;20520;-66
2023/02/28 05:26:41;;;;;;;3.72;0.55;;;15.40;65.60;;;;;;5117333;27;20084;-65
2023/02/28 05:29:08;;;;;;;5.47;1.00;;;15.40;65.20;;;;;;5121980;27;20519;-64
2023/02/28 05:31:35;;;;;;;1.88;0.70;;;15.40;64.90;;;;;;5117789;27;20547;-65
2023/02/28 05:34:03;;;;;;;4.00;1.20;;;15.40;65.10;;;;;;5118329;27;20068;-66
2023/02/28 05:36:30;;;;;;;5.88;1.05;;;15.50;65.30;;;;;;5120013;27;20506;-64
2023/02/28 05:38:57;;;;;;;10.57;1.00;;;15.50;65.10;;;;;;5123846;27;20073;-63
2023/02/28 05:41:24;;;;;;;6.60;0.88;;;15.50;64.90;;;;;;5123160;27;20101;-63
2023/02/28 05:43:50;;;;;;;3.70;1.10;;;15.50;64.60;;;;;;5114500;27;20068;-63
2023/02/28 05:46:17;;;;;;;16.77;1.30;;;15.50;65.00;;;;;;5117668;27;20072;-64
2023/02/28 05:48:46;;;;;;;12.18;1.17;;;15.50;65.40;;;;;;5118718;27;20075;-65
2023/02/28 05:51:13;;;;;;;15.27;1.33;;;15.40;65.60;;;;;;5120156;27;20067;-64
2023/02/28 05:53:39;;;;;;;10.15;1.30;;;15.50;65.20;;;;;;5118749;27;20067;-63
2023/02/28 05:56:06;;;;;;;18.23;1.27;;;15.50;64.40;;;;;;5116457;27;20129;-64
2023/02/28 05:58:34;;;;;;;24.38;8.27;;;15.60;64.90;;;;;;5120269;27;20113;-66
2023/02/28 06:01:19;;;;;;;6.65;1.00;;;15.80;65.10;;;;;;5117362;27;20167;-68
2023/02/28 06:03:45;;;;;;;11.45;1.38;;;16.00;64.40;;;;;;5115747;27;20086;-66
2023/02/28 06:06:12;;;;;;;10.77;1.40;;;16.10;64.00;;;;;;5122619;27;20528;-67
2023/02/28 06:08:38;;;;;;;2.35;0.63;;;16.20;63.70;;;;;;5119837;27;20092;-67
2023/02/28 06:11:06;;;;;;;5.32;1.17;;;16.30;63.90;;;;;;5119638;27;20064;-66
2023/02/28 06:13:32;;;;;;;7.47;0.98;;;16.20;64.10;;;;;;5119687;27;20132;-68
2023/02/28 06:16:01;;;;;;;8.70;1.10;;;16.20;64.20;;;;;;5115977;27;20154;-69
2023/02/28 06:18:28;;;;;;;11.05;2.15;;;16.20;64.00;;;;;;5118484;27;20067;-69
2023/02/28 06:20:55;;;;;;;1.80;0.77;;;16.10;64.00;;;;;;5119114;27;20616;-70
2023/02/28 06:23:22;;;;;;;4.72;1.25;;;16.10;63.90;;;;;;5101672;27;20528;-66
2023/02/28 06:25:49;;;;;;;4.80;1.10;;;16.20;64.20;;;;;;5109232;27;20102;-67
2023/02/28 06:28:16;;;;;;;9.15;0.90;;;16.00;64.30;;;;;;5130786;27;20103;-66
2023/02/28 06:30:42;;;;;;;1.70;0.57;;;16.10;63.90;;;;;;5117600;27;20120;-65
2023/02/28 06:33:09;;;;;;;4.60;0.70;;;16.20;64.80;;;;;;5119671;27;20085;-68
2023/02/28 06:35:35;;;;;;;2.28;1.00;;;16.20;63.60;;;;;;5120349;27;20071;-69
2023/02/28 06:38:01;;;;;;;3.60;0.70;;;16.10;63.90;;;;;;5115676;27;20111;-67
2023/02/28 06:40:28;;;;;;;3.28;0.47;;;16.10;63.90;;;;;;5120303;27;20078;-69
2023/02/28 06:42:54;;;;;;;17.73;1.73;;;16.10;63.90;;;;;;5122496;27;20547;-67
2023/02/28 06:45:20;;;;;;;1.38;0.45;;;16.20;63.80;;;;;;5116611;27;20431;-68
2023/02/28 06:47:51;;;;;;;2.42;0.68;;;16.00;64.00;;;;;;5115213;27;20076;-68
2023/02/28 06:50:21;;;;;;;5.45;1.02;;;16.00;64.00;;;;;;5115671;27;20084;-67
2023/02/28 06:52:47;;;;;;;16.88;1.30;;;16.00;64.30;;;;;;5117192;27;20069;-67
2023/02/28 06:55:14;;;;;;;8.85;0.90;;;16.10;64.30;;;;;;5115794;27;20076;-66
2023/02/28 06:57:40;;;;;;;9.90;1.02;;;16.10;64.20;;;;;;5118204;27;20100;-67
2023/02/28 07:00:09;;;;;;;27.45;2.10;;;15.90;64.60;;;;;;5116282;27;20563;-67
2023/02/28 07:02:38;;;;;;;2.17;0.90;;;16.00;65.00;;;;;;5116801;27;20148;-66
2023/02/28 07:05:08;;;;;;;7.28;0.70;;;15.90;65.30;;;;;;5112007;27;20100;-66
2023/02/28 07:07:36;;;;;;;8.02;1.20;;;15.90;65.50;;;;;;5115819;27;20104;-67
2023/02/28 07:10:02;;;;;;;2.58;0.80;;;15.70;66.10;;;;;;5118357;27;20584;-69
2023/02/28 07:12:29;;;;;;;15.85;1.15;;;15.70;66.30;;;;;;5113826;27;20579;-66
2023/02/28 07:14:55;;;;;;;5.90;0.90;;;15.60;66.60;;;;;;5112546;27;20440;-66
2023/02/28 07:17:22;;;;;;;3.22;0.63;;;15.70;66.80;;;;;;5112055;27;20085;-65
2023/02/28 07:19:48;;;;;;;4.30;0.77;;;15.70;66.60;;;;;;5110155;27;20135;-66
2023/02/28 07:22:14;;;;;;;2.70;0.70;;;15.70;66.60;;;;;;5114622;27;20078;-65
2023/02/28 07:24:41;;;;;;;5.88;0.75;;;15.70;66.70;;;;;;5112517;27;20444;-66
2023/02/28 07:27:07;;;;;;;5.55;0.70;;;15.70;66.50;;;;;;5109892;28;20184;-66
2023/02/28 07:29:33;;;;;;;4.68;0.70;;;15.80;66.30;;;;;;5115301;28;20100;-67
2023/02/28 07:32:00;;;;;;;2.13;0.77;;;15.80;65.90;;;;;;5108643;27;20076;-66
2023/02/28 07:34:26;;;;;;;4.20;0.80;;;15.70;66.30;;;;;;5116981;28;20603;-66
2023/02/28 07:36:54;;;;;;;3.67;0.90;;;15.70;66.30;;;;;;5112904;27;20083;-66
2023/02/28 07:39:22;;;;;;;1.80;0.80;;;15.60;66.90;;;;;;5110471;27;20071;-65
2023/02/28 07:41:48;;;;;;;10.68;1.35;;;15.40;66.90;;;;;;5113241;28;20115;-67
2023/02/28 07:44:15;;;;;;;1.95;0.68;;;15.40;66.80;;;;;;5113563;28;20154;-68
2023/02/28 07:46:41;;;;;;;5.28;0.80;;;15.30;67.50;;;;;;5114560;28;20068;-68
2023/02/28 07:49:08;;;;;;;3.47;0.80;;;15.30;67.20;;;;;;5116429;28;20080;-68
2023/02/28 07:51:34;;;;;;;;;;;15.30;67.10;;;;;;5112874;27;20072;-69
2023/02/28 07:54:00;;;;;;;5.40;1.00;;;15.20;67.30;;;;;;5115897;27;20420;-67
2023/02/28 07:56:27;;;;;;;3.47;1.23;;;15.10;67.40;;;;;;5112140;28;20178;-69
2023/02/28 07:58:53;;;;;;;8.32;1.73;;;15.20;67.60;;;;;;5117385;27;20106;-68
2023/02/28 08:01:19;;;;;;;;;;;15.10;67.60;;;;;;5113415;27;20185;-67
2023/02/28 08:03:46;;;;;;;3.42;1.10;;;15.00;68.00;;;;;;5110089;28;19963;-67
2023/02/28 08:06:16;;;;;;;;;;;15.00;67.80;;;;;;5120137;27;20091;-66
2023/02/28 08:08:44;;;;;;;1.40;0.40;;;15.10;67.20;;;;;;5116802;28;20090;-69
2023/02/28 08:11:10;;;;;;;0.95;0.73;;;15.20;66.60;;;;;;5112433;28;20175;-67
2023/02/28 08:13:37;;;;;;;1.67;0.52;;;15.30;66.60;;;;;;5113391;28;20110;-66
2023/02/28 08:16:03;;;;;;;1.02;0.50;;;15.30;66.10;;;;;;5108636;28;20092;-67
2023/02/28 08:18:30;;;;;;;0.82;0.50;;;15.40;66.30;;;;;;5115187;27;20106;-67
2023/02/28 08:20:57;;;;;;;0.50;0.32;;;15.40;66.30;;;;;;5119410;27;20128;-65
2023/02/28 08:23:23;;;;;;;4.57;0.50;;;15.40;66.10;;;;;;5117749;27;20092;-68
2023/02/28 08:25:54;;;;;;;;;;;15.30;65.80;;;;;;5118066;27;20080;-66
2023/02/28 08:28:20;;;;;;;1.23;0.50;;;15.30;66.40;;;;;;5117874;27;20386;-65
2023/02/28 08:30:46;;;;;;;2.85;0.50;;;15.40;66.60;;;;;;5118605;27;20604;-66
2023/02/28 08:33:13;;;;;;;0.77;0.50;;;15.30;66.80;;;;;;5120086;27;20083;-68
2023/02/28 08:35:39;;;;;;;;;;;15.20;66.80;;;;;;5119805;27;20080;-68
2023/02/28 08:38:05;;;;;;;2.25;0.70;;;15.20;67.50;;;;;;5113673;27;19956;-68
2023/02/28 08:40:31;;;;;;;;;;;15.30;67.60;;;;;;5114840;27;20174;-68
2023/02/28 08:42:59;;;;;;;4.22;0.80;;;15.30;67.20;;;;;;5116842;27;19970;-66
2023/02/28 08:45:26;;;;;;;3.85;0.95;;;15.40;67.80;;;;;;5117464;27;20073;-68
2023/02/28 08:47:54;;;;;;;4.18;1.05;;;15.40;67.70;;;;;;5116851;27;20065;-68
2023/02/28 08:50:20;;;;;;;3.25;1.02;;;15.30;67.60;;;;;;5112187;27;20084;-68
2023/02/28 08:52:48;;;;;;;2.60;1.00;;;15.30;67.90;;;;;;5116371;27;20162;-69
2023/02/28 08:55:15;;;;;;;2.65;0.75;;;15.20;67.40;;;;;;5116828;27;20504;-66
2023/02/28 08:57:41;;;;;;;0.77;0.70;;;15.20;68.00;;;;;;5116330;27;20421;-67
2023/02/28 09:00:10;;;;;;;1.17;0.82;;;15.20;68.40;;;;;;5116134;27;20095;-67
2023/02/28 09:02:36;;;;;;;2.70;0.77;;;15.20;68.60;;;;;;5118321;27;20079;-66
2023/02/28 09:05:03;;;;;;;5.90;1.00;;;15.10;69.00;;;;;;5119549;27;21297;-67
2023/02/28 09:07:30;;;;;;;3.67;1.13;;;14.90;68.60;;;;;;5117679;27;20071;-68
2023/02/28 09:09:57;;;;;;;7.07;0.90;;;14.80;68.90;;;;;;5118233;27;20087;-67
2023/02/28 09:12:25;;;;;;;3.95;0.80;;;14.70;69.50;;;;;;5110462;27;20108;-66
2023/02/28 09:14:52;;;;;;;5.50;0.77;;;14.60;70.00;;;;;;5113417;27;20521;-65
2023/02/28 09:17:20;;;;;;;4.95;1.13;;;14.50;70.10;;;;;;5116630;27;20092;-66
2023/02/28 09:19:49;;;;;;;5.22;0.80;;;14.40;70.80;;;;;;5112308;27;20103;-67
2023/02/28 09:22:15;;;;;;;1.40;0.63;;;14.50;71.00;;;;;;5115984;27;20095;-68
2023/02/28 09:24:42;;;;;;;4.32;0.80;;;14.50;71.10;;;;;;5116000;27;20068;-68
2023/02/28 09:27:08;;;;;;;;;;;14.50;71.10;;;;;;5116294;27;20087;-67
2023/02/28 09:29:35;;;;;;;2.78;1.00;;;14.50;71.00;;;;;;5117399;27;20050;-66
2023/02/28 09:32:01;;;;;;;7.55;1.02;;;14.40;71.10;;;;;;5115806;27;20528;-68
2023/02/28 09:34:31;;;;;;;3.03;1.27;;;14.30;71.30;;;;;;5113617;27;20623;-69
2023/02/28 09:36:58;;;;;;;3.67;0.88;;;14.20;71.90;;;;;;5117648;27;20116;-69
2023/02/28 09:39:28;;;;;;;4.75;0.75;;;14.20;72.00;;;;;;5110371;27;20069;-69
2023/02/28 09:41:56;;;;;;;3.92;0.70;;;14.10;72.50;;;;;;5117568;27;20460;-67
2023/02/28 09:44:35;;;;;;;3.15;0.80;;;14.00;72.60;;;;;;5115896;27;21308;-66
2023/02/28 09:47:24;;;;;;;2.13;0.80;;;14.00;72.90;;;;;;5118510;27;20078;-69
2023/02/28 09:49:51;;;;;;;4.50;0.88;;;14.00;73.10;;;;;;5117719;27;20119;-67
2023/02/28 09:52:20;;;;;;;3.92;1.25;;;14.00;72.90;;;;;;5112763;27;20141;-68
2023/02/28 09:54:47;;;;;;;3.13;1.00;;;14.00;72.90;;;;;;5119521;27;20097;-67
2023/02/28 09:57:32;;;;;;;2.20;0.90;;;14.00;73.40;;;;;;5113791;27;20096;-68
2023/02/28 10:00:14;;;;;;;4.90;0.80;;;13.90;73.20;;;;;;5110968;27;20789;-68
2023/02/28 10:03:09;;;;;;;2.17;0.80;;;13.70;73.90;;;;;;5115652;27;20649;-68
2023/02/28 10:05:56;;;;;;;1.77;0.68;;;13.80;74.20;;;;;;5119261;27;20068;-68
2023/02/28 10:08:50;;;;;;;2.40;0.55;;;13.90;74.30;;;;;;5115194;27;20565;-67
2023/02/28 10:11:20;;;;;;;1.65;0.70;;;13.90;74.20;;;;;;5108547;27;20433;-68
2023/02/28 10:13:57;;;;;;;1.30;0.77;;;14.00;74.40;;;;;;5113109;27;20083;-67
2023/02/28 10:16:51;;;;;;;1.70;0.60;;;14.00;74.30;;;;;;5112811;27;20079;-69
2023/02/28 10:19:24;;;;;;;0.68;0.50;;;14.10;74.30;;;;;;5087363;27;20124;-67
2023/02/28 10:21:54;;;;;;;0.73;0.50;;;14.10;74.40;;;;;;5113806;27;20079;-65
2023/02/28 10:24:43;;;;;;;1.85;0.47;;;14.10;74.20;;;;;;5113288;27;20163;-67
2023/02/28 10:27:21;;;;;;;2.30;0.63;;;14.20;74.00;;;;;;5113793;27;20085;-67
2023/02/28 10:29:54;;;;;;;2.30;0.52;;;14.20;73.90;;;;;;5111280;27;20066;-67
2023/02/28 10:32:25;;;;;;;1.77;0.30;;;14.30;73.80;;;;;;5112174;27;20106;-67
2023/02/28 10:35:16;;;;;;;3.30;0.38;;;14.20;73.80;;;;;;5110038;27;20070;-67
2023/02/28 10:37:45;;;;;;;0.40;0.32;;;14.30;73.80;;;;;;5109932;27;20556;-66
2023/02/28 10:40:20;;;;;;;2.05;0.40;;;14.30;73.80;;;;;;5116968;27;20592;-68
2023/02/28 10:43:17;;;;;;;0.35;0.35;;;14.20;74.00;;;;;;5112283;27;20079;-67
2023/02/28 10:46:04;;;;;;;1.95;0.63;;;14.20;74.00;;;;;;5111398;27;20107;-66
2023/02/28 10:48:42;;;;;;;0.82;0.60;;;14.20;74.30;;;;;;5115949;27;20568;-67
2023/02/28 10:51:11;;;;;;;0.50;0.50;;;14.20;74.30;;;;;;5115254;27;20109;-67
2023/02/28 10:53:43;;;;;;;0.77;0.60;;;14.30;74.50;;;;;;5106269;27;21454;-65
2023/02/28 10:56:09;;;;;;;1.00;0.40;;;14.10;74.80;;;;;;5112690;27;20083;-67
2023/02/28 10:58:48;;;;;;;;;;;14.00;75.00;;;;;;5116249;27;20075;-65
2023/02/28 11:01:37;;;;;;;0.90;0.82;;;14.00;75.40;;;;;;5114935;27;19971;-67
2023/02/28 11:04:24;;;;;;;0.70;0.40;;;14.00;75.60;;;;;;5105777;27;20145;-65
2023/02/28 11:07:18;;;;;;;1.10;0.33;;;14.00;75.70;;;;;;5103925;27;20088;-67
2023/02/28 11:09:51;;;;;;;1.27;0.40;;;14.00;76.00;;;;;;5111261;27;20154;-66
2023/02/28 11:12:26;;;;;;;0.57;0.40;;;14.00;76.00;;;;;;5108192;27;20080;-66
2023/02/28 11:15:00;;;;;;;1.00;0.38;;;13.90;76.20;;;;;;5113586;27;20075;-66
2023/02/28 11:17:31;;;;;;;2.25;0.43;;;13.90;76.20;;;;;;5111558;27;20471;-67
2023/02/28 11:20:17;;;;;;;1.85;0.60;;;13.80;76.70;;;;;;5114522;27;20480;-68
2023/02/28 11:22:46;;;;;;;3.10;0.85;;;13.80;77.20;;;;;;5111205;28;20073;-67
2023/02/28 11:25:46;;;;;;;2.60;0.60;;;13.80;77.80;;;;;;5113215;27;20074;-66
2023/02/28 11:28:33;;;;;;;1.65;0.60;;;13.70;77.70;;;;;;5113574;27;20079;-67
2023/02/28 11:31:13;;;;;;;2.90;0.85;;;13.60;78.20;;;;;;5117951;28;20086;-68
2023/02/28 11:33:51;;;;;;;2.45;0.75;;;13.50;78.10;;;;;;5112792;28;20144;-67
2023/02/28 11:36:24;;;;;;;2.88;1.00;;;13.40;78.40;;;;;;5117814;28;20149;-69
2023/02/28 11:38:53;;;;;;;2.17;1.15;;;13.40;79.00;;;;;;5115899;28;20140;-69
2023/02/28 11:41:34;;;;;;;1.95;1.00;;;13.40;79.60;;;;;;5114298;28;20095;-67
2023/02/28 11:44:24;;;;;;;2.47;1.35;;;13.30;79.60;;;;;;5111743;28;20203;-66
2023/02/28 11:47:06;;;;;;;1.58;0.90;;;13.30;79.70;;;;;;5099311;28;20164;-68
2023/02/28 11:50:02;;;;;;;2.67;0.88;;;13.30;79.70;;;;;;5111918;28;20434;-68
2023/02/28 11:52:50;;;;;;;4.40;1.70;;;13.30;79.60;;;;;;5116677;27;20072;-66
2023/02/28 11:55:36;;;;;;;4.88;0.90;;;13.30;79.90;;;;;;5118115;27;20088;-66
2023/02/28 11:58:25;;;;;;;2.42;0.70;;;13.30;80.10;;;;;;5116059;27;20125;-66
2023/02/28 12:01:07;;;;;;;1.20;0.60;;;13.20;80.20;;;;;;5114259;27;20175;-66
2023/02/28 12:04:15;;;;;;;1.55;0.50;;;13.10;79.80;;;;;;5116266;27;20098;-67
2023/02/28 12:07:10;;;;;;;3.35;0.40;;;13.10;78.70;;;;;;5120571;27;20536;-67
2023/02/28 12:10:10;;;;;;;0.50;0.50;;;13.20;77.30;;;;;;5092676;28;20096;-68
2023/02/28 12:12:49;;;;;;;1.15;0.43;;;13.30;76.20;;;;;;5113982;27;20077;-68
2023/02/28 12:15:28;;;;;;;1.98;0.50;;;13.30;75.40;;;;;;5116720;27;20067;-67
2023/02/28 12:18:19;;;;;;;1.08;0.60;;;13.40;74.40;;;;;;5115299;27;20521;-68
2023/02/28 12:20:54;;;;;;;2.90;0.50;;;13.40;73.20;;;;;;5118548;27;20092;-70
2023/02/28 12:24:05;;;;;;;3.10;0.50;;;13.40;72.50;;;;;;5118767;27;20098;-68
2023/02/28 12:26:37;;;;;;;1.55;0.47;;;13.50;72.00;;;;;;5055607;28;20074;-68
2023/02/28 12:29:24;;;;;;;2.67;0.50;;;13.40;71.70;;;;;;5058231;28;20077;-69
2023/02/28 12:32:07;;;;;;;1.75;0.40;;;13.50;71.80;;;;;;5055329;28;20101;-67
2023/02/28 12:34:42;;;;;;;0.60;0.60;;;13.50;71.50;;;;;;5057635;28;20092;-67
2023/02/28 12:37:17;;;;;;;1.08;0.60;;;13.50;71.70;;;;;;5055729;28;20119;-67
2023/02/28 12:39:52;;;;;;;2.45;0.60;;;13.50;71.80;;;;;;5056358;28;20069;-67
2023/02/28 12:42:32;;;;;;;2.22;0.60;;;13.40;71.80;;;;;;5056169;28;20164;-69
2023/02/28 12:45:19;;;;;;;2.97;0.77;;;13.40;71.70;;;;;;5057827;28;20636;-68
2023/02/28 12:47:52;;;;;;;3.92;1.10;;;13.40;71.90;;;;;;5056417;28;20078;-67
2023/02/28 12:50:20;;;;;;;4.03;0.50;;;13.40;71.90;;;;;;5055648;28;20168;-68
2023/02/28 12:52:58;;;;;;;0.82;0.40;;;13.30;71.90;;;;;;5038569;28;20100;-69
2023/02/28 12:55:33;;;;;;;2.40;0.60;;;13.30;72.00;;;;;;5056095;28;20074;-67
2023/02/28 12:58:32;;;;;;;2.85;0.60;;;13.30;71.90;;;;;;5103935;27;20092;-68
2023/02/28 13:01:11;;;;;;;1.75;0.88;;;13.30;72.30;;;;;;5101834;27;20591;-67
2023/02/28 13:04:12;;;;;;;1.80;0.60;;;13.20;72.40;;;;;;5114394;27;20125;-68
2023/02/28 13:06:51;;;;;;;1.30;0.60;;;13.20;72.90;;;;;;5103485;27;20106;-65
2023/02/28 13:09:18;;;;;;;1.10;0.52;;;13.20;72.70;;;;;;5115159;27;20089;-66
2023/02/28 13:11:48;;;;;;;1.02;0.60;;;13.20;72.70;;;;;;5119655;27;20106;-67
2023/02/28 13:14:36;;;;;;;0.35;0.35;;;13.20;73.00;;;;;;5112279;27;20068;-66